Euskara    
Meteorología y climatología de Navarra
Datos de la estación - Meteo Navarra

Estación de Doneztebe-Santesteban GN

Altitud 125 m.


Datos desde el 23/02/2021 hasta el 24/02/2021 en horario solar
Los datos son PROVISIONALES

Anterior Página 1 de 1 Siguiente Descargar: Formato para Excel 2000 o superior   Formato csv   Formato para OpenOffice Calc
Fecha Temperatura Humedad relativa Radiación global Insolación Precipitación Vel. viento 10 m Vel. viento 10 m Dir. viento 10 m
°C % W/m² s l/m² m/s km/h °
23/02/2021 0:00 6.2 99 0.0 0 0.0 0.4 1.6 129
23/02/2021 0:10 6.3 99 0.0 0 0.0 0.5 1.8 129
23/02/2021 0:20 6.5 99 0.0 0 0.0 0.5 1.7 138
23/02/2021 0:30 6.3 99 0.0 0 0.0 0.2 0.6 108
23/02/2021 0:40 6.2 99 0.0 0 0.0 0.3 1.2 207
23/02/2021 0:50 6.2 99 0.0 0 0.0 0.5 1.9 165
23/02/2021 1:00 5.9 99 0.0 0 0.0 0.5 1.9 121
23/02/2021 1:10 6.0 99 0.0 0 0.0 1.5 5.2 136
23/02/2021 1:20 6.0 99 0.0 0 0.0 1.2 4.1 154
23/02/2021 1:30 5.9 99 0.0 0 0.0 1.6 5.7 134
23/02/2021 1:40 6.0 99 0.0 0 0.0 2.5 9.1 132
23/02/2021 1:50 6.2 99 0.0 0 0.0 1.4 5.2 143
23/02/2021 2:00 6.0 98 0.0 0 0.0 0.9 3.1 112
23/02/2021 2:10 6.1 99 0.0 0 0.0 1.2 4.4 147
23/02/2021 2:20 6.2 99 0.0 0 0.0 2.0 7.2 122
23/02/2021 2:30 6.2 99 0.0 0 0.0 1.0 3.4 127
23/02/2021 2:40 6.0 98 0.0 0 0.0 1.0 3.7 116
23/02/2021 2:50 5.9 99 0.0 0 0.0 0.9 3.1 148
23/02/2021 3:00 5.8 99 0.0 0 0.0 0.6 2.2 100
23/02/2021 3:10 6.1 99 0.0 0 0.0 1.2 4.4 181
23/02/2021 3:20 7.2 99 0.0 0 0.0 0.9 3.2 253
23/02/2021 3:30 8.0 96 0.0 0 0.0 0.6 2.3 186
23/02/2021 3:40 8.3 93 0.0 0 0.0 0.4 1.4 196
23/02/2021 3:50 8.1 91 0.0 0 0.0 0.6 2.1 219
23/02/2021 4:00 9.3 85 0.0 0 0.0 1.9 6.7 244
23/02/2021 4:10 9.4 85 0.0 0 0.0 0.9 3.3 206
23/02/2021 4:20 8.9 87 0.0 0 0.0 0.7 2.5 247
23/02/2021 4:30 9.5 84 0.0 0 0.0 1.5 5.3 268
23/02/2021 4:40 10.5 77 0.0 0 0.0 1.8 6.6 207
23/02/2021 4:50 10.6 77 0.0 0 0.0 1.0 3.6 287
23/02/2021 5:00 9.7 83 0.0 0 0.0 0.8 2.9 176
23/02/2021 5:10 10.1 79 0.0 0 0.0 1.4 5.0 227
23/02/2021 5:20 11.2 73 0.0 0 0.0 1.1 4.0 200
23/02/2021 5:30 10.3 79 0.0 0 0.0 1.4 5.0 194
23/02/2021 5:40 10.2 80 0.0 0 0.0 0.7 2.6 167
23/02/2021 5:50 10.3 79 0.0 0 0.0 1.5 5.5 196
23/02/2021 6:00 11.6 69 0.0 0 0.0 2.8 10.0 162
23/02/2021 6:10 11.9 67 0.0 0 0.0 1.0 3.7 278
23/02/2021 6:20 11.6 69 0.0 0 0.0 1.2 4.4 290
23/02/2021 6:30 11.5 69 0.0 0 0.0 1.8 6.6 293
23/02/2021 6:40 11.3 70 0.0 0 0.0 2.3 8.4 302
23/02/2021 6:50 11.1 71 0.0 0 0.0 2.3 8.4 301
23/02/2021 7:00 10.6 73 0.0 0 0.0 1.6 5.8 297
23/02/2021 7:10 10.8 72 0.0 0 0.0 2.0 7.3 236
23/02/2021 7:20 11.3 69 5.7 0 0.0 1.4 4.9 241
23/02/2021 7:30 11.2 69 19.1 0 0.0 2.8 10.2 189
23/02/2021 7:40 11.4 67 23.0 0 0.0 1.9 7.0 171
23/02/2021 7:50 11.5 66 40.3 4 0.0 2.5 9.0 228
23/02/2021 8:00 11.5 67 64.6 38 0.0 1.6 5.9 226
23/02/2021 8:10 11.6 68 102.9 182 0.0 0.8 2.8 209
23/02/2021 8:20 11.2 70 81.5 28 0.0 1.2 4.2 215
23/02/2021 8:30 11.7 66 89.1 0 0.0 1.1 4.1 178
23/02/2021 8:40 11.8 67 99.4 0 0.0 0.5 1.9 273
23/02/2021 8:50 11.8 68 128.1 24 0.0 1.3 4.5 253
23/02/2021 9:00 12.0 67 137.7 26 0.0 2.5 8.9 160
23/02/2021 9:10 12.2 67 152.0 0 0.0 1.3 4.7 94
23/02/2021 9:20 12.4 66 191.6 118 0.0 1.0 3.5 175
23/02/2021 9:30 12.6 66 200.5 62 0.0 2.1 7.5 286
23/02/2021 9:40 12.7 65 190.6 0 0.0 1.8 6.6 319
23/02/2021 9:50 12.8 66 210.7 56 0.0 1.5 5.5 312
23/02/2021 10:00 13.0 65 251.9 126 0.0 2.6 9.5 292
23/02/2021 10:10 13.3 64 268.4 118 0.0 1.4 5.1 286
23/02/2021 10:20 13.6 64 321.3 208 0.0 1.8 6.4 321
23/02/2021 10:30 14.3 64 533.9 480 0.0 1.1 4.1 324
23/02/2021 10:40 14.6 60 601.8 540 0.0 2.2 7.9 319
23/02/2021 10:50 15.3 60 719.3 594 0.0 2.4 8.6 312
23/02/2021 11:00 15.7 57 729.7 582 0.0 2.7 9.8 141
23/02/2021 11:10 15.9 53 677.0 512 0.0 3.4 12.1 106
23/02/2021 11:20 16.1 53 718.3 586 0.0 3.5 12.7 129
23/02/2021 11:30 16.3 52 740.3 600 0.0 3.8 13.5 124
23/02/2021 11:40 16.6 50 752.3 600 0.0 2.2 7.9 190
23/02/2021 11:50 16.5 50 718.2 600 0.0 2.8 10.2 262
23/02/2021 12:00 16.6 48 710.9 600 0.0 4.7 17.0 170
23/02/2021 12:10 16.7 49 699.7 600 0.0 3.2 11.4 147
23/02/2021 12:20 16.8 48 690.3 600 0.0 3.6 12.8 150
23/02/2021 12:30 16.8 48 670.7 600 0.0 5.2 18.8 135
23/02/2021 12:40 16.8 48 660.0 600 0.0 6.9 24.8 137
23/02/2021 12:50 17.0 48 640.7 588 0.0 5.5 19.9 130
23/02/2021 13:00 17.0 48 656.2 600 0.0 5.7 20.6 132
23/02/2021 13:10 17.2 46 645.9 584 0.0 5.3 18.9 150
23/02/2021 13:20 17.3 46 612.2 556 0.0 4.3 15.3 150
23/02/2021 13:30 17.4 45 611.3 560 0.0 4.0 14.4 154
23/02/2021 13:40 17.6 45 540.3 494 0.0 3.4 12.1 165
23/02/2021 13:50 17.7 45 510.9 462 0.0 3.6 13.1 181
23/02/2021 14:00 17.6 45 421.5 360 0.0 3.6 12.9 160
23/02/2021 14:10 17.7 45 508.2 488 0.0 3.6 13.1 118
23/02/2021 14:20 17.6 45 412.8 398 0.0 2.8 10.2 151
23/02/2021 14:30 17.8 44 510.2 538 0.0 3.7 13.2 141
23/02/2021 14:40 17.9 44 548.5 600 0.0 4.5 16.3 156
23/02/2021 14:50 18.1 44 531.4 600 0.0 4.7 17.0 128
23/02/2021 15:00 18.1 43 494.7 594 0.0 4.2 15.0 137
23/02/2021 15:10 18.2 43 468.5 600 0.0 3.1 11.2 159
23/02/2021 15:20 17.9 44 357.7 500 0.0 4.4 15.8 150
23/02/2021 15:30 17.7 44 346.2 526 0.0 4.3 15.5 136
23/02/2021 15:40 17.6 44 140.4 98 0.0 4.0 14.3 130
23/02/2021 15:50 17.3 44 98.8 24 0.0 3.2 11.3 163
23/02/2021 16:00 17.3 46 169.7 262 0.0 3.6 13.1 160
23/02/2021 16:10 17.6 46 268.6 600 0.0 3.8 13.8 136
23/02/2021 16:20 17.7 46 233.6 600 0.0 1.4 5.1 163
23/02/2021 16:30 17.7 47 164.1 402 0.0 1.8 6.3 153
23/02/2021 16:40 17.2 46 88.2 88 0.0 2.7 9.7 153
23/02/2021 16:50 17.0 48 79.3 160 0.0 2.4 8.6 136
23/02/2021 17:00 17.1 48 114.8 600 0.0 3.5 12.6 134
23/02/2021 17:10 16.8 49 77.6 600 0.0 3.1 11.2 134
23/02/2021 17:20 16.8 48 51.0 400 0.0 3.3 11.9 144
23/02/2021 17:30 16.7 49 25.2 0 0.0 2.3 8.4 143
23/02/2021 17:40 16.2 50 10.3 0 0.0 2.4 8.5 147
23/02/2021 17:50 16.1 50 0.0 0 0.0 2.4 8.5 172
23/02/2021 18:00 16.0 51 0.0 0 0.0 2.4 8.7 139
23/02/2021 18:10 15.7 53 0.0 0 0.0 2.0 7.2 146
23/02/2021 18:20 15.7 53 0.0 0 0.0 2.4 8.7 166
23/02/2021 18:30 15.1 56 0.0 0 0.0 1.5 5.5 163
23/02/2021 18:40 15.5 54 0.0 0 0.0 1.6 5.8 162
23/02/2021 18:50 14.1 61 0.0 0 0.0 1.2 4.1 197
23/02/2021 19:00 15.1 55 0.0 0 0.0 1.5 5.4 182
23/02/2021 19:10 15.0 56 0.0 0 0.0 0.7 2.4 233
23/02/2021 19:20 14.1 60 0.0 0 0.0 1.1 4.0 214
23/02/2021 19:30 13.7 62 0.0 0 0.0 1.1 3.9 220
23/02/2021 19:40 13.6 62 0.0 0 0.0 1.4 5.1 230
23/02/2021 19:50 13.5 63 0.0 0 0.0 1.0 3.5 200
23/02/2021 20:00 13.9 61 0.0 0 0.0 1.5 5.3 245
23/02/2021 20:10 13.6 63 0.0 0 0.0 0.7 2.7 218
23/02/2021 20:20 12.6 67 0.0 0 0.0 1.1 3.9 188
23/02/2021 20:30 13.2 64 0.0 0 0.0 1.2 4.5 185
23/02/2021 20:40 13.4 63 0.0 0 0.0 1.1 4.0 213
23/02/2021 20:50 13.7 62 0.0 0 0.0 1.5 5.2 184
23/02/2021 21:00 13.5 62 0.0 0 0.0 1.8 6.4 210
23/02/2021 21:10 14.3 59 0.0 0 0.0 1.6 5.7 180
23/02/2021 21:20 14.3 60 0.0 0 0.0 1.5 5.3 203
23/02/2021 21:30 14.4 59 0.0 0 0.0 1.4 4.9 207
23/02/2021 21:40 14.3 59 0.0 0 0.0 1.3 4.5 217
23/02/2021 21:50 14.3 59 0.0 0 0.0 1.3 4.5 195
23/02/2021 22:00 13.6 62 0.0 0 0.0 1.3 4.6 174
23/02/2021 22:10 13.8 61 0.0 0 0.0 1.5 5.3 184
23/02/2021 22:20 12.6 67 0.0 0 0.0 1.0 3.5 209
23/02/2021 22:30 11.4 73 0.0 0 0.0 0.6 2.1 161
23/02/2021 22:40 11.1 74 0.0 0 0.0 0.9 3.1 207
23/02/2021 22:50 11.0 75 0.0 0 0.0 0.9 3.3 254
23/02/2021 23:00 10.9 74 0.0 0 0.0 1.6 5.9 227
23/02/2021 23:10 11.9 69 0.0 0 0.0 0.6 2.1 212
23/02/2021 23:20 11.2 73 0.0 0 0.0 1.6 5.6 181
23/02/2021 23:30 11.8 70 0.0 0 0.0 0.5 1.7 169
23/02/2021 23:40 10.5 75 0.0 0 0.0 0.6 2.3 54
23/02/2021 23:50 9.8 79 0.0 0 0.0 0.2 0.6 146
Anterior Página 1 de 1 Siguiente

NOTA: Tipo de datos según el color:
   - Valores diarios o 10 minutos correctos
   - Valores diarios calculados a partir de un número de datos 10 minutos menor que 144 y mayor que 120, o de un número de datos semihorarios menor que 48 y mayor que 40 (caso de las estaciones de INTIA Y Ministerio)
   - Valores diez minutos estimados


Contacto        Enlaces        Aviso legal